Time;durP1;ratioP1;P1;durP2;ratioP2;P2;SDS_P1;SDS_P2;PMS_P1;PMS_P2;Temp;Humidity;BMP_temperature;BMP_pressure;BME280_temperature;BME280_humidity;BME280_pressure;Samples;Min_cycle;Max_cycle;Signal;HPM_P1;HPM_P2
2023/09/18 00:02:06;;;;;;;;;;;;;;;16.54;46.59;101362.88;5061808;28;1030;-61
2023/09/18 00:04:33;;;;;;;;;;;;;;;16.47;46.05;101365.03;5069344;28;1117;-61
2023/09/18 00:06:59;;;;;;;;;;;;;;;16.38;45.70;101355.56;5056928;28;1019;-62
2023/09/18 00:09:24;;;;;;;;;;;;;;;16.31;45.47;101355.78;5069132;28;1237;-61
2023/09/18 00:11:50;;;;;;;;;;;;;;;16.27;45.35;101351.91;5061634;28;1909;-61
2023/09/18 00:14:15;;;;;;;;;;;;;;;16.22;45.30;101343.63;5074592;28;1541;-62
2023/09/18 00:16:41;;;;;;;;;;;;;;;16.21;45.21;101340.03;5064840;28;983;-63
2023/09/18 00:19:07;;;;;;;;;;;;;;;16.19;45.11;101344.94;5068421;28;1087;-62
2023/09/18 00:21:33;;;;;;;;;;;;;;;16.18;44.83;101346.03;5074822;28;1039;-62
2023/09/18 00:23:59;;;;;;;;;;;;;;;16.20;44.64;101346.63;5050834;28;1007;-61
2023/09/18 00:26:24;;;;;;;;;;;;;;;16.04;45.08;101345.59;5074683;28;1448;-61
2023/09/18 00:28:52;;;;;;;;;;;;;;;17.08;45.92;101348.31;5078973;28;1162;-62
2023/09/18 00:31:18;;;;;;;;;;;;;;;16.58;46.64;101355.78;5078491;28;1907;-62
2023/09/18 00:33:44;;;;;;;;;;;;;;;16.42;46.22;101357.56;5050346;28;1243;-62
2023/09/18 00:36:10;;;;;;;;;;;;;;;16.31;46.21;101355.78;5058955;28;1106;-62
2023/09/18 00:38:35;;;;;;;;;;;;;;;16.34;45.60;101352.53;5064752;28;1044;-61
2023/09/18 00:41:01;;;;;;;;;;;;;;;16.81;46.13;101342.00;5071747;28;1087;-60
2023/09/18 00:43:26;;;;;;;;;;;;;;;16.64;47.13;101351.19;5068722;28;2447;-60
2023/09/18 00:45:52;;;;;;;;;;;;;;;16.41;46.70;101347.66;5077487;28;1007;-61
2023/09/18 00:48:18;;;;;;;;;;;;;;;16.45;45.96;101355.38;5078186;28;1094;-62
2023/09/18 00:50:44;;;;;;;;;;;;;;;16.35;45.83;101354.16;5077098;28;900;-62
2023/09/18 00:53:09;;;;;;;;;;;;;;;16.25;45.49;101337.59;5078176;28;1983;-62
2023/09/18 00:55:36;;;;;;;;;;;;;;;16.29;45.01;101348.91;5046726;28;1046;-62
2023/09/18 00:58:01;;;;;;;;;;;;;;;16.30;44.86;101336.81;5049150;28;1094;-63
2023/09/18 01:00:27;;;;;;;;;;;;;;;16.21;45.12;101342.75;5057429;28;1149;-62
2023/09/18 01:02:52;;;;;;;;;;;;;;;16.13;45.07;101336.91;5052044;28;1177;-63
2023/09/18 01:05:19;;;;;;;;;;;;;;;16.21;44.98;101336.47;5064596;28;1042;-61
2023/09/18 01:07:46;;;;;;;;;;;;;;;16.18;44.56;101336.97;5067014;28;1125;-62
2023/09/18 01:10:15;;;;;;;;;;;;;;;16.15;44.76;101335.56;5075138;28;1125;-62
2023/09/18 01:12:44;;;;;;;;;;;;;;;16.03;44.68;101334.88;5060489;28;1906;-60
2023/09/18 01:15:23;;;;;;;;;;;;;;;16.10;44.61;101326.47;5062366;28;1939;-61
2023/09/18 01:17:48;;;;;;;;;;;;;;;16.02;44.57;101324.97;5064237;28;1158;-61
2023/09/18 01:20:14;;;;;;;;;;;;;;;17.13;45.95;101321.97;5064525;28;987;-61
2023/09/18 01:22:40;;;;;;;;;;;;;;;16.61;47.04;101324.25;5040002;28;1167;-61
2023/09/18 01:25:06;;;;;;;;;;;;;;;16.46;46.76;101330.41;5076850;28;1046;-62
2023/09/18 01:27:32;;;;;;;;;;;;;;;16.29;46.25;101325.03;5063898;28;1034;-61
2023/09/18 01:29:58;;;;;;;;;;;;;;;16.23;45.88;101326.06;5076314;28;1068;-61
2023/09/18 01:32:25;;;;;;;;;;;;;;;16.29;45.39;101321.47;5076975;28;1972;-62
2023/09/18 01:34:54;;;;;;;;;;;;;;;17.03;46.27;101322.72;5070317;28;1011;-61
2023/09/18 01:37:21;;;;;;;;;;;;;;;16.52;46.72;101323.06;5049331;28;1023;-62
2023/09/18 01:39:47;;;;;;;;;;;;;;;16.36;46.44;101319.34;5052233;28;1450;-60
2023/09/18 01:42:13;;;;;;;;;;;;;;;16.28;46.09;101323.38;5052423;28;1023;-62
2023/09/18 01:44:38;;;;;;;;;;;;;;;16.37;45.62;101332.81;5063699;28;2527;-62
2023/09/18 01:47:04;;;;;;;;;;;;;;;16.76;46.93;101329.88;5052791;28;1124;-63
2023/09/18 01:49:34;;;;;;;;;;;;;;;16.51;46.89;101327.72;5059165;28;998;-62
2023/09/18 01:52:00;;;;;;;;;;;;;;;16.45;46.10;101338.91;5042212;28;1914;-62
2023/09/18 01:54:25;;;;;;;;;;;;;;;17.18;46.72;101335.72;5048443;28;1179;-62
2023/09/18 01:56:51;;;;;;;;;;;;;;;16.76;47.36;101324.38;5039288;28;841;-60
2023/09/18 01:59:17;;;;;;;;;;;;;;;16.56;46.93;101324.19;5054705;28;1177;-61
2023/09/18 02:01:43;;;;;;;;;;;;;;;16.49;46.43;101324.41;5051013;28;1306;-60
2023/09/18 02:04:09;;;;;;;;;;;;;;;16.48;45.79;101330.16;5049625;28;1029;-61
2023/09/18 02:06:35;;;;;;;;;;;;;;;16.33;45.60;101328.91;5048787;28;1102;-61
2023/09/18 02:09:00;;;;;;;;;;;;;;;16.36;45.23;101331.13;5044073;28;1096;-61
2023/09/18 02:11:26;;;;;;;;;;;;;;;16.28;45.35;101328.03;5041125;28;1907;-61
2023/09/18 02:13:52;;;;;;;;;;;;;;;16.86;46.12;101329.13;5040498;28;1809;-60
2023/09/18 02:16:22;;;;;;;;;;;;;;;16.72;47.04;101325.19;5043165;28;1107;-62
2023/09/18 02:18:48;;;;;;;;;;;;;;;16.49;46.82;101332.63;5055065;28;996;-62
2023/09/18 02:21:21;;;;;;;;;;;;;;;16.41;46.14;101328.44;5041817;28;1145;-61
2023/09/18 02:23:50;;;;;;;;;;;;;;;16.43;45.51;101329.00;5047321;28;1106;-62
2023/09/18 02:26:15;;;;;;;;;;;;;;;16.37;45.50;101335.53;5047682;28;1178;-63
2023/09/18 02:28:41;;;;;;;;;;;;;;;16.38;45.23;101339.09;5046710;28;1047;-62
2023/09/18 02:31:08;;;;;;;;;;;;;;;17.25;46.25;101328.06;5038164;28;1976;-62
2023/09/18 02:33:33;;;;;;;;;;;;;;;16.82;47.44;101328.00;5046567;28;983;-62
2023/09/18 02:35:59;;;;;;;;;;;;;;;16.60;46.90;101328.06;5038566;28;1008;-62
2023/09/18 02:38:24;;;;;;;;;;;;;;;16.50;46.63;101336.22;5047812;28;1030;-61
2023/09/18 02:40:52;;;;;;;;;;;;;;;16.48;45.91;101324.66;5036464;28;988;-62
2023/09/18 02:43:18;;;;;;;;;;;;;;;16.40;45.61;101328.72;5043145;28;2412;-62
2023/09/18 02:45:44;;;;;;;;;;;;;;;16.42;45.62;101326.53;5049401;28;999;-60
2023/09/18 02:48:10;;;;;;;;;;;;;;;16.31;45.58;101325.59;5036367;28;999;-61
2023/09/18 02:50:35;;;;;;;;;;;;;;;16.25;45.41;101323.88;5042951;28;996;-60
2023/09/18 02:53:01;;;;;;;;;;;;;;;16.31;45.00;101327.50;5031905;28;1984;-60
2023/09/18 02:55:26;;;;;;;;;;;;;;;16.23;45.06;101326.06;5020114;28;1091;-61
2023/09/18 02:57:52;;;;;;;;;;;;;;;16.28;44.99;101320.63;5023611;28;1139;-60
2023/09/18 03:00:18;;;;;;;;;;;;;;;17.08;46.51;101333.72;5019074;28;1151;-59
2023/09/18 03:02:44;;;;;;;;;;;;;;;16.56;47.13;101335.19;5015116;28;1084;-60
2023/09/18 03:05:09;;;;;;;;;;;;;;;16.47;46.62;101334.81;5015177;28;1161;-60
2023/09/18 03:07:35;;;;;;;;;;;;;;;16.45;46.65;101336.16;5024202;28;1068;-59
2023/09/18 03:10:01;;;;;;;;;;;;;;;16.87;47.40;101335.44;5038871;28;1095;-59
2023/09/18 03:12:26;;;;;;;;;;;;;;;16.57;47.26;101332.16;5038912;28;1910;-59
2023/09/18 03:14:52;;;;;;;;;;;;;;;16.53;46.46;101343.94;5032459;28;2271;-59
2023/09/18 03:17:17;;;;;;;;;;;;;;;16.45;46.16;101342.47;5028733;28;1310;-58
2023/09/18 03:19:43;;;;;;;;;;;;;;;16.42;45.94;101343.00;5027642;28;1199;-59
2023/09/18 03:22:08;;;;;;;;;;;;;;;16.34;45.83;101338.81;5038091;28;1193;-60
2023/09/18 03:24:34;;;;;;;;;;;;;;;16.35;45.63;101334.97;5036388;28;1710;-58
2023/09/18 03:26:59;;;;;;;;;;;;;;;16.30;45.21;101334.94;5035328;28;1114;-59
2023/09/18 03:29:25;;;;;;;;;;;;;;;16.38;45.12;101334.47;5019528;28;1287;-56
2023/09/18 03:31:51;;;;;;;;;;;;;;;16.30;45.04;101332.19;5023413;28;1910;-56
2023/09/18 03:34:16;;;;;;;;;;;;;;;16.53;45.72;101333.78;5027730;28;1624;-57
2023/09/18 03:36:42;;;;;;;;;;;;;;;16.89;47.24;101334.13;5027150;28;1147;-56
2023/09/18 03:39:09;;;;;;;;;;;;;;;16.60;47.05;101330.81;5029897;28;1274;-57
2023/09/18 03:41:35;;;;;;;;;;;;;;;16.42;46.68;101330.13;5035238;28;1200;-57
2023/09/18 03:44:00;;;;;;;;;;;;;;;16.39;46.09;101330.63;5026893;28;2505;-57
2023/09/18 03:46:26;;;;;;;;;;;;;;;16.37;45.77;101330.06;5006669;28;1588;-57
2023/09/18 03:48:52;;;;;;;;;;;;;;;16.31;45.87;101333.81;5023388;28;1182;-57
2023/09/18 03:51:19;;;;;;;;;;;;;;;16.35;45.35;101339.63;5028057;28;1910;-57
2023/09/18 03:53:44;;;;;;;;;;;;;;;16.23;45.39;101328.81;5062599;28;1162;-57
2023/09/18 03:56:10;;;;;;;;;;;;;;;16.31;45.08;101328.31;5057855;28;1262;-57
2023/09/18 03:58:36;;;;;;;;;;;;;;;16.15;45.12;101343.00;5045064;28;963;-53
2023/09/18 04:01:01;;;;;;;;;;;;;;;17.04;45.86;101336.19;5064263;28;1122;-57
2023/09/18 04:03:27;;;;;;;;;;;;;;;16.55;46.72;101345.34;5042694;28;1279;-58
2023/09/18 04:05:53;;;;;;;;;;;;;;;16.41;46.52;101347.66;5072562;28;1057;-57
2023/09/18 04:08:18;;;;;;;;;;;;;;;16.37;46.04;101341.03;5070103;28;1015;-57
2023/09/18 04:10:44;;;;;;;;;;;;;;;16.31;46.37;101342.06;5059496;28;1044;-58
2023/09/18 04:13:10;;;;;;;;;;;;;;;16.99;47.40;101347.13;5040856;28;2485;-58
2023/09/18 04:15:37;;;;;;;;;;;;;;;16.63;47.46;101346.78;5051550;28;1506;-58
2023/09/18 04:18:06;;;;;;;;;;;;;;;16.55;46.80;101350.84;5066985;28;1082;-57
2023/09/18 04:20:31;;;;;;;;;;;;;;;16.45;46.50;101350.72;5058339;28;1118;-57
2023/09/18 04:23:16;;;;;;;;;;;;;;;16.38;46.19;101355.56;5060618;28;1309;-57
2023/09/18 04:25:42;;;;;;;;;;;;;;;17.08;46.99;101356.56;5045336;28;1210;-58
2023/09/18 04:28:07;;;;;;;;;;;;;;;16.68;47.04;101355.06;5060132;28;881;-57
2023/09/18 04:30:33;;;;;;;;;;;;;;;16.61;46.55;101348.97;5060346;28;1151;-59
2023/09/18 04:32:59;;;;;;;;;;;;;;;16.53;46.46;101354.91;5047308;28;1980;-58
2023/09/18 04:35:25;;;;;;;;;;;;;;;16.37;46.32;101352.00;5070271;28;1087;-58
2023/09/18 04:37:54;;;;;;;;;;;;;;;16.43;45.82;101359.19;5057993;28;1127;-58
2023/09/18 04:40:20;;;;;;;;;;;;;;;17.35;45.32;101352.91;5073234;28;850;-55
2023/09/18 04:42:46;;;;;;;;;;;;;;;17.44;45.29;101353.22;5041950;28;1220;-58
2023/09/18 04:45:11;;;;;;;;;;;;;;;17.18;46.34;101352.22;5069731;28;2495;-59
2023/09/18 04:47:37;;;;;;;;;;;;;;;17.07;46.89;101357.63;5055038;28;1110;-58
2023/09/18 04:50:05;;;;;;;;;;;;;;;16.94;47.54;101358.06;5058324;28;1003;-58
2023/09/18 04:52:31;;;;;;;;;;;;;;;16.91;48.17;101359.44;5041105;28;1959;-58
2023/09/18 04:54:57;;;;;;;;;;;;;;;16.78;48.65;101357.09;5040405;28;1854;-58
2023/09/18 04:57:22;;;;;;;;;;;;;;;16.74;48.95;101359.50;5053169;28;1118;-57
2023/09/18 04:59:49;;;;;;;;;;;;;;;16.70;49.41;101365.78;5052231;28;1160;-57
2023/09/18 05:02:14;;;;;;;;;;;;;;;16.62;49.70;101358.88;5059251;28;1121;-58
2023/09/18 05:04:40;;;;;;;;;;;;;;;16.59;49.87;101362.09;5075427;28;842;-58
2023/09/18 05:07:05;;;;;;;;;;;;;;;16.63;50.23;101368.75;5046024;28;1209;-58
2023/09/18 05:09:32;;;;;;;;;;;;;;;16.49;50.72;101367.50;5066759;28;1106;-57
2023/09/18 05:11:58;;;;;;;;;;;;;;;16.51;50.69;101365.31;5070808;28;1984;-58
2023/09/18 05:14:23;;;;;;;;;;;;;;;16.45;50.94;101371.84;5058240;28;2540;-58
2023/09/18 05:16:48;;;;;;;;;;;;;;;16.43;51.01;101364.69;5057488;28;1154;-56
2023/09/18 05:19:14;;;;;;;;;;;;;;;16.40;51.29;101364.41;5057607;28;1107;-57
2023/09/18 05:21:40;;;;;;;;;;;;;;;16.32;51.47;101365.66;5071243;28;1072;-57
2023/09/18 05:24:05;;;;;;;;;;;;;;;16.32;51.57;101362.09;5057606;28;1027;-57
2023/09/18 05:26:31;;;;;;;;;;;;;;;16.84;51.08;101366.19;5075314;28;1059;-57
2023/09/18 05:28:57;;;;;;;;;;;;;;;17.35;49.78;101366.63;5065370;28;933;-57
2023/09/18 05:31:24;;;;;;;;;;;;;;;16.84;51.28;101355.22;5057147;28;1976;-56
2023/09/18 05:33:50;;;;;;;;;;;;;;;16.76;51.31;101351.84;5057340;28;1316;-56
2023/09/18 05:36:15;;;;;;;;;;;;;;;16.66;51.63;101368.25;5075297;28;1070;-58
2023/09/18 05:38:41;;;;;;;;;;;;;;;16.52;51.93;101367.81;5065880;28;1039;-58
2023/09/18 05:41:07;;;;;;;;;;;;;;;16.49;52.03;101362.00;5069896;28;1533;-58
2023/09/18 05:43:32;;;;;;;;;;;;;;;16.39;52.54;101362.72;5060130;28;1837;-56
2023/09/18 05:45:58;;;;;;;;;;;;;;;16.43;52.50;101364.69;5058199;28;1086;-58
2023/09/18 05:48:23;;;;;;;;;;;;;;;16.32;52.53;101362.09;5061763;28;1000;-57
2023/09/18 05:50:49;;;;;;;;;;;;;;;16.27;52.56;101362.03;5057158;28;1095;-57
2023/09/18 05:53:14;;;;;;;;;;;;;;;16.24;52.95;101352.41;5056820;28;1975;-54
2023/09/18 05:55:40;;;;;;;;;;;;;;;17.26;51.35;101365.47;5074621;28;1035;-56
2023/09/18 05:58:06;;;;;;;;;;;;;;;17.17;51.72;101367.06;5067327;28;1086;-55
2023/09/18 06:00:32;;;;;;;;;;;;;;;16.82;52.22;101358.22;5056543;28;1046;-56
2023/09/18 06:02:58;;;;;;;;;;;;;;;16.67;52.85;101355.34;5040746;28;1261;-56
2023/09/18 06:05:24;;;;;;;;;;;;;;;16.50;53.12;101364.50;5076376;28;904;-56
2023/09/18 06:07:50;;;;;;;;;;;;;;;16.48;52.92;101354.84;5061919;28;1075;-56
2023/09/18 06:10:16;;;;;;;;;;;;;;;16.45;53.21;101367.19;5067910;28;1093;-57
2023/09/18 06:12:42;;;;;;;;;;;;;;;16.38;53.27;101367.41;5058267;28;1911;-58
2023/09/18 06:15:11;;;;;;;;;;;;;;;16.32;53.24;101371.16;5058359;28;2383;-55
2023/09/18 06:17:40;;;;;;;;;;;;;;;16.32;53.05;101373.09;5069228;28;987;-56
2023/09/18 06:20:16;;;;;;;;;;;;;;;16.31;53.43;101366.75;5059494;28;1187;-58
2023/09/18 06:22:41;;;;;;;;;;;;;;;17.49;51.49;101377.16;5056733;28;1030;-57
2023/09/18 06:25:07;;;;;;;;;;;;;;;16.96;52.47;101368.78;5073320;28;1210;-56
2023/09/18 06:27:36;;;;;;;;;;;;;;;16.72;52.99;101375.44;5073977;28;1241;-57
2023/09/18 06:30:02;;;;;;;;;;;;;;;16.58;53.27;101377.75;5068152;28;1410;-56
2023/09/18 06:32:27;;;;;;;;;;;;;;;16.49;53.48;101389.47;5066547;28;2039;-57
2023/09/18 06:34:53;;;;;;;;;;;;;;;16.50;53.33;101377.41;5069337;28;1115;-57
2023/09/18 06:37:18;;;;;;;;;;;;;;;16.42;53.45;101384.16;5076157;28;1043;-56
2023/09/18 06:39:44;;;;;;;;;;;;;;;16.35;53.45;101376.13;5055996;28;1246;-57
2023/09/18 06:42:09;;;;;;;;;;;;;;;16.34;53.36;101379.97;5068698;28;980;-59
2023/09/18 06:44:35;;;;;;;;;;;;;;;16.30;53.42;101381.59;5061142;28;2091;-60
2023/09/18 06:47:00;;;;;;;;;;;;;;;16.23;53.45;101386.44;5056183;28;1308;-54
2023/09/18 06:49:27;;;;;;;;;;;;;;;17.01;53.94;101380.69;5062956;28;1106;-57
2023/09/18 06:51:52;;;;;;;;;;;;;;;17.40;53.13;101376.84;5063543;28;1909;-57
2023/09/18 06:54:18;;;;;;;;;;;;;;;16.95;54.05;101381.72;5059060;28;1031;-57
2023/09/18 06:56:44;;;;;;;;;;;;;;;16.73;54.55;101374.34;5063783;28;1023;-57
2023/09/18 06:59:10;;;;;;;;;;;;;;;16.66;54.24;101372.88;5062504;28;1102;-56
2023/09/18 07:01:36;;;;;;;;;;;;;;;16.60;54.32;101374.75;5076268;28;1123;-56
2023/09/18 07:04:02;;;;;;;;;;;;;;;16.55;54.29;101372.78;5061458;28;1260;-57
2023/09/18 07:06:27;;;;;;;;;;;;;;;16.48;54.26;101374.06;5056283;28;1724;-57
2023/09/18 07:08:53;;;;;;;;;;;;;;;16.51;53.93;101370.81;5057018;28;1032;-54
2023/09/18 07:11:18;;;;;;;;;;;;;;;16.48;53.73;101374.91;5075650;28;1977;-56
2023/09/18 07:13:44;;;;;;;;;;;;;;;16.39;53.88;101377.28;5061522;28;1966;-56
2023/09/18 07:16:09;;;;;;;;;;;;;;;17.28;53.44;101371.53;5066535;28;999;-61
2023/09/18 07:18:35;;;;;;;;;;;;;;;17.30;53.38;101365.78;5063285;28;1056;-60
2023/09/18 07:21:00;;;;;;;;;;;;;;;16.94;54.21;101363.56;5066171;28;1358;-58
2023/09/18 07:23:26;;;;;;;;;;;;;;;16.80;54.32;101371.38;5060423;28;1273;-60
2023/09/18 07:25:51;;;;;;;;;;;;;;;16.76;54.20;101371.06;5070847;28;1287;-58
2023/09/18 07:28:19;;;;;;;;;;;;;;;16.68;54.38;101365.22;5061446;28;1093;-55
2023/09/18 07:30:44;;;;;;;;;;;;;;;16.60;54.36;101364.59;5064698;28;1218;-57
2023/09/18 07:33:10;;;;;;;;;;;;;;;16.62;54.41;101369.84;5058617;28;1910;-58
2023/09/18 07:35:36;;;;;;;;;;;;;;;16.57;54.19;101367.03;5064012;28;1126;-57
2023/09/18 07:38:01;;;;;;;;;;;;;;;16.53;54.21;101369.47;5067210;28;1127;-58
2023/09/18 07:40:27;;;;;;;;;;;;;;;16.49;54.17;101367.50;5071049;28;1143;-57
2023/09/18 07:42:53;;;;;;;;;;;;;;;16.45;54.34;101371.84;5074911;28;1075;-55
2023/09/18 07:45:18;;;;;;;;;;;;;;;16.46;54.23;101376.25;5074095;28;2212;-58
2023/09/18 07:47:44;;;;;;;;;;;;;;;16.44;54.07;101371.03;5071490;28;1067;-61
2023/09/18 07:50:09;;;;;;;;;;;;;;;16.38;54.41;101361.06;5068166;28;1182;-55
2023/09/18 07:52:35;;;;;;;;;;;;;;;16.37;54.02;101360.25;5054037;28;1910;-55
2023/09/18 07:55:01;;;;;;;;;;;;;;;16.40;53.93;101365.22;5059345;28;1015;-61
2023/09/18 07:57:28;;;;;;;;;;;;;;;16.35;53.99;101365.16;5078611;28;1103;-57
2023/09/18 07:59:53;;;;;;;;;;;;;;;16.47;54.10;101366.94;5073842;28;1277;-58
2023/09/18 08:02:19;;;;;;;;;;;;;;;17.67;53.24;101371.25;5072092;28;1146;-55
2023/09/18 08:04:44;;;;;;;;;;;;;;;17.20;54.10;101366.53;5071867;28;1047;-56
2023/09/18 08:07:12;;;;;;;;;;;;;;;16.95;54.54;101359.72;5059394;28;1056;-55
2023/09/18 08:09:38;;;;;;;;;;;;;;;16.79;54.71;101382.63;5078866;28;1252;-57
2023/09/18 08:12:04;;;;;;;;;;;;;;;16.79;54.73;101371.63;5065031;28;1902;-57
2023/09/18 08:14:30;;;;;;;;;;;;;;;16.74;54.57;101386.97;5075877;28;2070;-57
2023/09/18 08:16:56;;;;;;;;;;;;;;;16.59;54.73;101378.56;5064976;28;1177;-57
2023/09/18 08:19:23;;;;;;;;;;;;;;;16.65;54.70;101377.56;5068427;28;1031;-56
2023/09/18 08:21:49;;;;;;;;;;;;;;;16.58;54.62;101374.19;5061287;28;1035;-56
2023/09/18 08:24:14;;;;;;;;;;;;;;;16.60;54.61;101372.81;5059198;28;1120;-56
2023/09/18 08:26:40;;;;;;;;;;;;;;;16.54;54.73;101375.81;5061840;28;1147;-56
2023/09/18 08:29:05;;;;;;;;;;;;;;;16.53;54.64;101374.13;5060221;28;1083;-56
2023/09/18 08:31:31;;;;;;;;;;;;;;;16.51;54.49;101376.28;5078231;28;1980;-56
2023/09/18 08:33:57;;;;;;;;;;;;;;;16.55;54.51;101366.44;5078575;28;1086;-57
2023/09/18 08:36:22;;;;;;;;;;;;;;;16.50;54.58;101367.25;5061855;28;1078;-57
2023/09/18 08:38:48;;;;;;;;;;;;;;;16.44;54.71;101365.53;5040838;28;987;-59
2023/09/18 08:41:13;;;;;;;;;;;;;;;16.42;54.58;101373.19;5058035;28;1150;-57
2023/09/18 08:43:39;;;;;;;;;;;;;;;16.39;54.68;101365.47;5045609;28;1982;-59
2023/09/18 08:46:05;;;;;;;;;;;;;;;16.41;54.53;101368.78;5060419;28;1210;-58
2023/09/18 08:48:34;;;;;;;;;;;;;;;16.56;54.68;101379.94;5078259;28;1101;-58
2023/09/18 08:51:04;;;;;;;;;;;;;;;17.59;53.97;101353.31;5054634;28;1027;-58
2023/09/18 08:53:34;;;;;;;;;;;;;;;17.07;55.00;101365.88;5067565;28;1977;-58
2023/09/18 08:56:01;;;;;;;;;;;;;;;16.86;55.41;101372.28;5077881;28;1098;-58
2023/09/18 08:58:31;;;;;;;;;;;;;;;16.73;55.29;101371.59;5068447;28;1296;-57
2023/09/18 09:00:57;;;;;;;;;;;;;;;16.78;54.74;101365.31;5065842;28;1324;-58
2023/09/18 09:03:23;;;;;;;;;;;;;;;16.60;55.11;101363.78;5064495;28;1213;-58
2023/09/18 09:05:48;;;;;;;;;;;;;;;16.60;55.14;101355.53;5065509;28;1127;-58
2023/09/18 09:08:14;;;;;;;;;;;;;;;16.55;54.95;101367.31;5065278;28;1344;-58
2023/09/18 09:10:40;;;;;;;;;;;;;;;16.55;54.93;101367.31;5077741;28;1662;-58
2023/09/18 09:13:06;;;;;;;;;;;;;;;16.47;54.92;101365.03;5076776;28;1915;-58
2023/09/18 09:15:32;;;;;;;;;;;;;;;16.51;54.57;101377.13;5065899;28;1050;-57
2023/09/18 09:18:02;;;;;;;;;;;;;;;16.51;54.46;101370.81;5060088;28;1141;-56
2023/09/18 09:20:27;;;;;;;;;;;;;;;16.41;54.75;101366.03;5061066;28;1170;-56
2023/09/18 09:22:55;;;;;;;;;;;;;;;16.41;54.79;101366.03;5066249;28;1397;-56
2023/09/18 09:25:21;;;;;;;;;;;;;;;16.41;54.72;101366.88;5052143;28;1312;-56
2023/09/18 09:27:47;;;;;;;;;;;;;;;16.68;54.96;101371.53;5056749;28;1119;-57
2023/09/18 09:30:23;;;;;;;;;;;;;;;17.49;54.90;101375.25;5063822;28;1103;-58
2023/09/18 09:32:51;;;;;;;;;;;;;;;17.10;55.26;101375.53;5077755;28;1978;-58
2023/09/18 09:35:21;;;;;;;;;;;;;;;16.86;55.47;101372.28;5057205;28;1209;-57
2023/09/18 09:37:47;;;;;;;;;;;;;;;16.73;55.56;101374.34;5056733;28;1359;-52
2023/09/18 09:40:14;;;;;;;;;;;;;;;16.74;55.40;101386.16;5057212;28;1055;-55
2023/09/18 09:42:40;;;;;;;;;;;;;;;16.64;55.44;101380.56;5038908;28;1039;-57
2023/09/18 09:45:11;;;;;;;;;;;;;;;16.60;55.30;101374.75;5062682;28;2113;-56
2023/09/18 09:47:37;;;;;;;;;;;;;;;16.58;55.25;101379.69;5070339;28;1046;-53
2023/09/18 09:50:06;;;;;;;;;;;;;;;16.54;55.20;101378.53;5059135;28;1116;-57
2023/09/18 09:52:33;;;;;;;;;;;;;;;16.53;54.98;101369.47;5059342;28;1976;-58
2023/09/18 09:54:58;;;;;;;;;;;;;;;16.46;55.26;101373.50;5066302;28;1024;-55
2023/09/18 09:57:24;;;;;;;;;;;;;;;16.50;54.82;101372.72;5072553;28;1091;-51
2023/09/18 09:59:49;;;;;;;;;;;;;;;16.47;54.96;101375.19;5074725;28;1256;-56
2023/09/18 10:02:19;;;;;;;;;;;;;;;16.47;54.90;101364.19;5066399;28;1275;-56
2023/09/18 10:04:48;;;;;;;;;;;;;;;16.45;54.68;101366.34;5058281;28;1069;-51
2023/09/18 10:07:13;;;;;;;;;;;;;;;16.40;54.81;101358.91;5068375;28;1015;-52
2023/09/18 10:09:39;;;;;;;;;;;;;;;16.40;54.74;101369.88;5070758;28;1055;-58
2023/09/18 10:12:06;;;;;;;;;;;;;;;16.39;54.55;101366.28;5068187;28;1972;-57
2023/09/18 10:14:34;;;;;;;;;;;;;;;16.40;54.65;101370.69;5063928;28;2027;-58
2023/09/18 10:16:59;;;;;;;;;;;;;;;16.34;54.91;101366.25;5068683;28;1311;-58
2023/09/18 10:19:26;;;;;;;;;;;;;;;16.41;54.58;101366.88;5051413;28;1269;-57
2023/09/18 10:21:54;;;;;;;;;;;;;;;17.50;54.75;101359.56;5069301;28;1241;-57
2023/09/18 10:24:22;;;;;;;;;;;;;;;17.06;55.73;101358.72;5076263;28;1044;-58
2023/09/18 10:26:55;;;;;;;;;;;;;;;16.87;55.85;101369.25;5055047;28;1022;-58
2023/09/18 10:29:20;;;;;;;;;;;;;;;16.77;55.46;101358.16;5038327;28;1102;-58
2023/09/18 10:31:46;;;;;;;;;;;;;;;16.69;55.21;101362.22;5069533;28;1921;-57
2023/09/18 10:34:12;;;;;;;;;;;;;;;16.60;55.33;101359.09;5064027;28;1128;-58
2023/09/18 10:36:38;;;;;;;;;;;;;;;16.57;55.06;101356.06;5067749;28;1030;-59
2023/09/18 10:39:08;;;;;;;;;;;;;;;16.51;55.23;101351.59;5051249;28;1217;-57
2023/09/18 10:41:34;;;;;;;;;;;;;;;16.51;54.89;101359.81;5051073;28;1146;-55
2023/09/18 10:44:00;;;;;;;;;;;;;;;16.49;54.92;101348.28;5070025;28;1875;-53
2023/09/18 10:46:26;;;;;;;;;;;;;;;16.55;54.61;101361.81;5058450;28;1031;-60
2023/09/18 10:48:52;;;;;;;;;;;;;;;16.40;54.79;101348.75;5063716;28;1023;-60
2023/09/18 10:51:21;;;;;;;;;;;;;;;16.39;54.77;101347.09;5065111;28;1006;-57
2023/09/18 10:53:47;;;;;;;;;;;;;;;16.41;54.61;101335.84;5052515;28;1051;-61
2023/09/18 10:56:15;;;;;;;;;;;;;;;16.34;54.84;101338.81;5068578;28;1008;-61
2023/09/18 10:58:41;;;;;;;;;;;;;;;16.37;54.55;101338.28;5060950;28;1070;-61
2023/09/18 11:01:06;;;;;;;;;;;;;;;16.35;54.85;101340.44;5044752;28;1066;-57
2023/09/18 11:03:37;;;;;;;;;;;;;;;17.24;55.24;101338.25;5051251;28;976;-56
2023/09/18 11:06:06;;;;;;;;;;;;;;;17.19;55.65;101337.38;5062468;28;1002;-57
2023/09/18 11:08:49;;;;;;;;;;;;;;;16.96;55.81;101333.91;5075081;28;1336;-57
2023/09/18 11:11:20;;;;;;;;;;;;;;;16.81;55.72;101336.50;5073345;28;1285;-58
2023/09/18 11:13:46;;;;;;;;;;;;;;;16.74;55.43;101337.53;5060554;28;1903;-58
2023/09/18 11:16:27;;;;;;;;;;;;;;;16.66;55.43;101334.44;5066318;28;988;-59
2023/09/18 11:18:59;;;;;;;;;;;;;;;16.67;55.05;101342.41;5072649;28;1038;-56
2023/09/18 11:21:25;;;;;;;;;;;;;;;16.70;54.88;101330.91;5064467;28;1276;-57
2023/09/18 11:24:04;;;;;;;;;;;;;;;16.53;55.15;101339.25;5062016;28;1332;-57
2023/09/18 11:26:30;;;;;;;;;;;;;;;16.51;55.30;101332.38;5067596;28;1117;-59
2023/09/18 11:28:58;;;;;;;;;;;;;;;16.47;54.97;101342.25;5068888;28;1106;-57
2023/09/18 11:31:40;;;;;;;;;;;;;;;16.48;55.10;101330.16;5067459;28;1909;-60
2023/09/18 11:34:16;;;;;;;;;;;;;;;16.47;54.93;101337.56;5067696;28;1245;-59
2023/09/18 11:36:41;;;;;;;;;;;;;;;16.45;55.03;101326.00;5053345;28;1297;-61
2023/09/18 11:39:09;;;;;;;;;;;;;;;16.42;54.97;101326.53;5043324;28;1391;-60
2023/09/18 11:41:38;;;;;;;;;;;;;;;16.42;54.79;101321.88;5076717;28;1268;-59
2023/09/18 11:44:23;;;;;;;;;;;;;;;16.40;54.91;101320.47;5058686;28;1856;-59
2023/09/18 11:46:51;;;;;;;;;;;;;;;16.46;55.47;101313.13;5059762;28;1181;-59
2023/09/18 11:49:21;;;;;;;;;;;;;;;17.57;55.37;101310.66;5072302;28;971;-58
2023/09/18 11:51:47;;;;;;;;;;;;;;;17.16;55.96;101315.94;5054575;28;1905;-55
2023/09/18 11:54:12;;;;;;;;;;;;;;;16.95;55.96;101314.97;5059335;28;1015;-59
2023/09/18 11:56:39;;;;;;;;;;;;;;;16.78;55.79;101315.88;5041527;28;1059;-60
2023/09/18 11:59:06;;;;;;;;;;;;;;;16.73;55.78;101308.44;5060930;28;1102;-57
2023/09/18 12:01:35;;;;;;;;;;;;;;;16.73;55.35;101313.94;5078209;28;1003;-58
2023/09/18 12:04:01;;;;;;;;;;;;;;;16.68;55.24;101313.88;5066412;28;1102;-57
2023/09/18 12:06:26;;;;;;;;;;;;;;;16.63;55.06;101319.31;5064543;28;1090;-58
2023/09/18 12:08:52;;;;;;;;;;;;;;;16.59;55.13;101315.44;5059103;28;1096;-57
2023/09/18 12:11:19;;;;;;;;;;;;;;;16.57;54.92;101323.13;5066902;28;1137;-57
2023/09/18 12:13:50;;;;;;;;;;;;;;;16.53;55.01;101321.97;5067426;28;1905;-56
2023/09/18 12:16:16;;;;;;;;;;;;;;;16.60;54.74;101317.09;5051205;28;1312;-58
2023/09/18 12:18:45;;;;;;;;;;;;;;;16.46;55.04;101318.63;5066895;28;1173;-55
2023/09/18 12:21:10;;;;;;;;;;;;;;;16.42;55.10;101316.41;5068536;28;1159;-57
2023/09/18 12:23:39;;;;;;;;;;;;;;;16.46;54.83;101321.38;5070495;28;1011;-56
2023/09/18 12:26:06;;;;;;;;;;;;;;;16.41;54.74;101316.63;5061048;28;1103;-53
2023/09/18 12:28:35;;;;;;;;;;;;;;;16.41;54.71;101306.50;5043452;28;1138;-57
2023/09/18 12:31:04;;;;;;;;;;;;;;;17.16;55.53;101310.44;5060297;28;1063;-57
2023/09/18 12:33:33;;;;;;;;;;;;;;;17.41;55.66;101318.00;5061247;28;1974;-59
2023/09/18 12:35:58;;;;;;;;;;;;;;;17.04;55.97;101310.59;5062833;28;1067;-57
2023/09/18 12:38:26;;;;;;;;;;;;;;;16.85;55.77;101310.19;5051272;28;1316;-57
2023/09/18 12:40:55;;;;;;;;;;;;;;;16.76;55.70;101312.59;5077330;28;1442;-56
2023/09/18 12:43:22;;;;;;;;;;;;;;;16.79;55.50;101305.72;5068525;28;1930;-57
2023/09/18 12:45:49;;;;;;;;;;;;;;;16.69;55.43;101296.31;5051854;28;1216;-59